sensor_id;sensor_type;location;lat;lon;timestamp;pressure;altitude;pressure_sealevel;temperature;humidity
42289;BME280;30230;47.520;19.016;2023-05-13T00:00:46;99430.97;;;10.58;100.00
42289;BME280;30230;47.520;19.016;2023-05-13T00:02:47;99423.50;;;10.60;100.00
42289;BME280;30230;47.520;19.016;2023-05-13T00:04:47;99429.50;;;10.55;100.00
42289;BME280;30230;47.520;19.016;2023-05-13T00:06:47;99424.34;;;10.60;100.00
42289;BME280;30230;47.520;19.016;2023-05-13T00:08:48;99427.44;;;10.57;100.00
42289;BME280;30230;47.520;19.016;2023-05-13T00:10:48;99427.41;;;10.51;100.00
42289;BME280;30230;47.520;19.016;2023-05-13T00:12:49;99418.03;;;10.47;100.00
42289;BME280;30230;47.520;19.016;2023-05-13T00:14:49;99411.34;;;10.42;100.00
42289;BME280;30230;47.520;19.016;2023-05-13T00:16:49;99428.66;;;10.55;100.00
42289;BME280;30230;47.520;19.016;2023-05-13T00:18:50;99426.16;;;10.53;100.00
42289;BME280;30230;47.520;19.016;2023-05-13T00:20:50;99428.47;;;10.56;100.00
42289;BME280;30230;47.520;19.016;2023-05-13T00:22:51;99414.97;;;10.56;100.00
42289;BME280;30230;47.520;19.016;2023-05-13T00:24:51;99430.28;;;10.49;100.00
42289;BME280;30230;47.520;19.016;2023-05-13T00:26:52;99426.31;;;10.45;100.00
42289;BME280;30230;47.520;19.016;2023-05-13T00:28:53;99436.28;;;10.45;100.00
42289;BME280;30230;47.520;19.016;2023-05-13T00:30:53;99423.78;;;10.37;100.00
42289;BME280;30230;47.520;19.016;2023-05-13T00:32:54;99433.53;;;10.38;100.00
42289;BME280;30230;47.520;19.016;2023-05-13T00:34:54;99422.72;;;10.38;100.00
42289;BME280;30230;47.520;19.016;2023-05-13T00:36:55;99426.66;;;10.29;100.00
42289;BME280;30230;47.520;19.016;2023-05-13T00:38:55;99436.78;;;10.27;100.00
42289;BME280;30230;47.520;19.016;2023-05-13T00:40:56;99433.53;;;10.38;100.00
42289;BME280;30230;47.520;19.016;2023-05-13T00:42:56;99428.47;;;10.28;100.00
42289;BME280;30230;47.520;19.016;2023-05-13T00:44:57;99440.63;;;10.39;100.00
42289;BME280;30230;47.520;19.016;2023-05-13T00:46:58;99439.94;;;10.30;100.00
42289;BME280;30230;47.520;19.016;2023-05-13T00:48:59;99437.94;;;10.39;100.00
42289;BME280;30230;47.520;19.016;2023-05-13T00:51:00;99437.44;;;10.29;100.00
42289;BME280;30230;47.520;19.016;2023-05-13T00:53:02;99431.38;;;10.27;100.00
42289;BME280;30230;47.520;19.016;2023-05-13T00:55:02;99434.09;;;10.27;100.00
42289;BME280;30230;47.520;19.016;2023-05-13T00:57:03;99438.88;;;10.25;100.00
42289;BME280;30230;47.520;19.016;2023-05-13T00:59:04;99439.28;;;10.28;100.00
42289;BME280;30230;47.520;19.016;2023-05-13T01:03:43;99437.09;;;10.17;100.00
42289;BME280;30230;47.520;19.016;2023-05-13T01:05:55;99444.69;;;10.28;100.00
42289;BME280;30230;47.520;19.016;2023-05-13T01:08:07;99443.44;;;10.24;100.00
42289;BME280;30230;47.520;19.016;2023-05-13T01:10:35;99443.22;;;10.26;100.00
42289;BME280;30230;47.520;19.016;2023-05-13T01:12:43;99442.59;;;10.24;100.00
42289;BME280;30230;47.520;19.016;2023-05-13T01:14:58;99436.06;;;10.18;100.00
42289;BME280;30230;47.520;19.016;2023-05-13T01:17:17;99443.84;;;10.28;100.00
42289;BME280;30230;47.520;19.016;2023-05-13T01:21:34;99445.97;;;10.32;100.00
42289;BME280;30230;47.520;19.016;2023-05-13T01:23:36;99446.28;;;10.23;100.00
42289;BME280;30230;47.520;19.016;2023-05-13T01:25:38;99441.88;;;10.15;100.00
42289;BME280;30230;47.520;19.016;2023-05-13T01:27:39;99451.63;;;10.16;100.00
42289;BME280;30230;47.520;19.016;2023-05-13T01:29:42;99451.69;;;10.23;100.00
42289;BME280;30230;47.520;19.016;2023-05-13T01:31:44;99441.59;;;10.03;100.00
42289;BME280;30230;47.520;19.016;2023-05-13T01:33:45;99454.13;;;10.17;100.00
42289;BME280;30230;47.520;19.016;2023-05-13T01:35:47;99450.84;;;10.22;100.00
42289;BME280;30230;47.520;19.016;2023-05-13T01:37:48;99453.13;;;10.18;100.00
42289;BME280;30230;47.520;19.016;2023-05-13T01:39:50;99442.59;;;10.24;100.00
42289;BME280;30230;47.520;19.016;2023-05-13T01:41:51;99441.34;;;10.26;100.00
42289;BME280;30230;47.520;19.016;2023-05-13T01:43:51;99450.22;;;10.20;100.00
42289;BME280;30230;47.520;19.016;2023-05-13T01:45:51;99437.56;;;10.21;100.00
42289;BME280;30230;47.520;19.016;2023-05-13T01:47:52;99453.13;;;10.18;100.00
42289;BME280;30230;47.520;19.016;2023-05-13T01:49:53;99454.53;;;10.14;100.00
42289;BME280;30230;47.520;19.016;2023-05-13T01:51:53;99452.44;;;10.10;100.00
42289;BME280;30230;47.520;19.016;2023-05-13T01:53:53;99449.94;;;10.08;100.00
42289;BME280;30230;47.520;19.016;2023-05-13T01:55:54;99438.88;;;10.03;100.00
42289;BME280;30230;47.520;19.016;2023-05-13T01:57:54;99450.56;;;10.10;100.00
42289;BME280;30230;47.520;19.016;2023-05-13T01:59:55;99449.16;;;10.14;100.00
42289;BME280;30230;47.520;19.016;2023-05-13T02:01:55;99459.28;;;10.12;100.00
42289;BME280;30230;47.520;19.016;2023-05-13T02:03:56;99447.63;;;10.05;100.00
42289;BME280;30230;47.520;19.016;2023-05-13T02:05:57;99454.69;;;10.06;100.00
42289;BME280;30230;47.520;19.016;2023-05-13T02:07:57;99459.88;;;10.08;100.00
42289;BME280;30230;47.520;19.016;2023-05-13T02:09:58;99458.28;;;10.13;100.00
42289;BME280;30230;47.520;19.016;2023-05-13T02:11:58;99457.50;;;10.20;100.00
42289;BME280;30230;47.520;19.016;2023-05-13T02:13:59;99450.59;;;10.17;100.00
42289;BME280;30230;47.520;19.016;2023-05-13T02:16:00;99446.63;;;10.13;100.00
42289;BME280;30230;47.520;19.016;2023-05-13T02:18:00;99437.69;;;10.12;100.00
42289;BME280;30230;47.520;19.016;2023-05-13T02:20:00;99446.69;;;10.20;100.00
42289;BME280;30230;47.520;19.016;2023-05-13T02:22:01;99457.03;;;10.16;100.00
42289;BME280;30230;47.520;19.016;2023-05-13T02:24:01;99434.16;;;10.12;100.00
42289;BME280;30230;47.520;19.016;2023-05-13T02:26:02;99446.69;;;10.20;100.00
42289;BME280;30230;47.520;19.016;2023-05-13T02:28:02;99449.66;;;10.25;100.00
42289;BME280;30230;47.520;19.016;2023-05-13T02:30:03;99441.34;;;10.26;100.00
42289;BME280;30230;47.520;19.016;2023-05-13T02:32:04;99450.34;;;10.12;100.00
42289;BME280;30230;47.520;19.016;2023-05-13T02:34:05;99450.81;;;10.15;100.00
42289;BME280;30230;47.520;19.016;2023-05-13T02:36:05;99449.47;;;10.05;100.00
42289;BME280;30230;47.520;19.016;2023-05-13T02:38:08;99458.66;;;10.10;100.00
42289;BME280;30230;47.520;19.016;2023-05-13T02:40:09;99461.56;;;10.09;100.00
42289;BME280;30230;47.520;19.016;2023-05-13T02:42:09;99461.41;;;10.17;100.00
42289;BME280;30230;47.520;19.016;2023-05-13T02:44:10;99463.25;;;10.16;100.00
42289;BME280;30230;47.520;19.016;2023-05-13T02:46:10;99465.47;;;10.06;100.00
42289;BME280;30230;47.520;19.016;2023-05-13T02:48:11;99461.97;;;10.12;100.00
42289;BME280;30230;47.520;19.016;2023-05-13T02:50:11;99460.72;;;10.08;100.00
42289;BME280;30230;47.520;19.016;2023-05-13T02:52:12;99465.63;;;9.98;100.00
42289;BME280;30230;47.520;19.016;2023-05-13T02:54:12;99460.97;;;9.92;100.00
42289;BME280;30230;47.520;19.016;2023-05-13T02:56:13;99451.56;;;9.81;100.00
42289;BME280;30230;47.520;19.016;2023-05-13T02:58:15;99457.16;;;9.80;100.00
42289;BME280;30230;47.520;19.016;2023-05-13T03:00:16;99462.53;;;9.80;100.00
42289;BME280;30230;47.520;19.016;2023-05-13T03:02:16;99476.34;;;9.91;100.00
42289;BME280;30230;47.520;19.016;2023-05-13T03:04:17;99475.47;;;9.84;100.00
42289;BME280;30230;47.520;19.016;2023-05-13T03:06:17;99467.16;;;9.86;100.00
42289;BME280;30230;47.520;19.016;2023-05-13T03:08:18;99473.78;;;9.83;100.00
42289;BME280;30230;47.520;19.016;2023-05-13T03:10:18;99469.34;;;9.76;100.00
42289;BME280;30230;47.520;19.016;2023-05-13T03:12:19;99462.03;;;9.70;100.00
42289;BME280;30230;47.520;19.016;2023-05-13T03:14:19;99466.16;;;9.65;100.00
42289;BME280;30230;47.520;19.016;2023-05-13T03:16:19;99477.06;;;9.79;100.00
42289;BME280;30230;47.520;19.016;2023-05-13T03:18:20;99478.41;;;9.89;100.00
42289;BME280;30230;47.520;19.016;2023-05-13T03:20:20;99470.91;;;9.85;100.00
42289;BME280;30230;47.520;19.016;2023-05-13T03:22:21;99487.09;;;9.85;100.00
42289;BME280;30230;47.520;19.016;2023-05-13T03:24:21;99471.78;;;9.92;100.00
42289;BME280;30230;47.520;19.016;2023-05-13T03:26:22;99465.88;;;9.82;100.00
42289;BME280;30230;47.520;19.016;2023-05-13T03:28:22;99477.38;;;9.90;100.00
42289;BME280;30230;47.520;19.016;2023-05-13T03:30:23;99477.19;;;9.92;100.00
42289;BME280;30230;47.520;19.016;2023-05-13T03:32:23;99469.47;;;9.89;100.00
42289;BME280;30230;47.520;19.016;2023-05-13T03:34:29;99485.16;;;10.00;100.00
42289;BME280;30230;47.520;19.016;2023-05-13T03:36:29;99492.78;;;9.97;100.00
42289;BME280;30230;47.520;19.016;2023-05-13T03:38:31;99483.34;;;9.86;100.00
42289;BME280;30230;47.520;19.016;2023-05-13T03:40:31;99499.53;;;9.86;100.00
42289;BME280;30230;47.520;19.016;2023-05-13T03:42:32;99479.72;;;9.72;100.00
42289;BME280;30230;47.520;19.016;2023-05-13T03:44:32;99492.47;;;9.85;100.00
42289;BME280;30230;47.520;19.016;2023-05-13T03:46:33;99489.16;;;9.83;100.00
42289;BME280;30230;47.520;19.016;2023-05-13T03:48:33;99493.06;;;9.80;100.00
42289;BME280;30230;47.520;19.016;2023-05-13T03:50:33;99478.72;;;9.80;100.00
42289;BME280;30230;47.520;19.016;2023-05-13T03:52:34;99499.25;;;10.02;100.00
42289;BME280;30230;47.520;19.016;2023-05-13T03:54:35;99498.75;;;9.92;100.00
42289;BME280;30230;47.520;19.016;2023-05-13T03:56:35;99492.47;;;9.85;100.00
42289;BME280;30230;47.520;19.016;2023-05-13T03:58:35;99492.78;;;9.75;100.00
42289;BME280;30230;47.520;19.016;2023-05-13T04:00:36;99503.00;;;9.80;100.00
42289;BME280;30230;47.520;19.016;2023-05-13T04:02:36;99498.91;;;9.84;100.00
42289;BME280;30230;47.520;19.016;2023-05-13T04:04:36;99505.66;;;9.73;100.00
42289;BME280;30230;47.520;19.016;2023-05-13T04:06:37;99511.06;;;9.73;100.00
42289;BME280;30230;47.520;19.016;2023-05-13T04:08:37;99510.59;;;9.70;100.00
42289;BME280;30230;47.520;19.016;2023-05-13T04:10:38;99519.66;;;9.83;100.00
42289;BME280;30230;47.520;19.016;2023-05-13T04:12:39;99511.75;;;9.82;100.00
42289;BME280;30230;47.520;19.016;2023-05-13T04:14:39;99510.22;;;9.73;100.00
42289;BME280;30230;47.520;19.016;2023-05-13T04:16:40;99521.94;;;9.86;100.00
42289;BME280;30230;47.520;19.016;2023-05-13T04:18:40;99492.75;;;9.69;100.00
42289;BME280;30230;47.520;19.016;2023-05-13T04:20:41;99515.66;;;9.79;100.00
42289;BME280;30230;47.520;19.016;2023-05-13T04:22:41;99524.47;;;9.88;100.00
42289;BME280;30230;47.520;19.016;2023-05-13T04:24:42;99525.69;;;9.85;100.00
42289;BME280;30230;47.520;19.016;2023-05-13T04:26:42;99512.59;;;9.82;100.00
42289;BME280;30230;47.520;19.016;2023-05-13T04:28:42;99519.72;;;9.90;100.00
42289;BME280;30230;47.520;19.016;2023-05-13T04:30:43;99521.53;;;9.83;100.00
42289;BME280;30230;47.520;19.016;2023-05-13T04:32:43;99530.63;;;9.82;100.00
42289;BME280;30230;47.520;19.016;2023-05-13T04:34:44;99519.56;;;9.77;100.00
42289;BME280;30230;47.520;19.016;2023-05-13T04:36:44;99527.94;;;9.82;100.00
42289;BME280;30230;47.520;19.016;2023-05-13T04:38:45;99534.44;;;9.87;100.00
42289;BME280;30230;47.520;19.016;2023-05-13T04:40:46;99531.34;;;9.90;100.00
42289;BME280;30230;47.520;19.016;2023-05-13T04:42:47;99535.28;;;9.88;100.00
42289;BME280;30230;47.520;19.016;2023-05-13T04:44:53;99533.72;;;9.79;100.00
42289;BME280;30230;47.520;19.016;2023-05-13T04:46:53;99522.22;;;9.70;100.00
42289;BME280;30230;47.520;19.016;2023-05-13T04:48:54;99526.91;;;9.83;100.00
42289;BME280;30230;47.520;19.016;2023-05-13T04:50:55;99535.44;;;9.86;100.00
42289;BME280;30230;47.520;19.016;2023-05-13T04:52:55;99532.13;;;9.84;100.00
42289;BME280;30230;47.520;19.016;2023-05-13T04:54:56;99525.69;;;9.85;100.00
42289;BME280;30230;47.520;19.016;2023-05-13T04:56:56;99532.84;;;9.93;100.00
42289;BME280;30230;47.520;19.016;2023-05-13T04:58:56;99534.09;;;9.97;100.00
42289;BME280;30230;47.520;19.016;2023-05-13T05:00:57;99535.69;;;9.91;100.00
42289;BME280;30230;47.520;19.016;2023-05-13T05:02:57;99544.25;;;9.95;100.00
42289;BME280;30230;47.520;19.016;2023-05-13T05:04:58;99542.38;;;9.96;100.00
42289;BME280;30230;47.520;19.016;2023-05-13T05:06:58;99539.44;;;9.90;100.00
42289;BME280;30230;47.520;19.016;2023-05-13T05:08:58;99542.78;;;9.93;100.00
42289;BME280;30230;47.520;19.016;2023-05-13T05:10:59;99541.50;;;9.88;100.00
42289;BME280;30230;47.520;19.016;2023-05-13T05:13:00;99555.41;;;9.92;100.00
42289;BME280;30230;47.520;19.016;2023-05-13T05:15:01;99558.22;;;9.99;100.00
42289;BME280;30230;47.520;19.016;2023-05-13T05:17:01;99552.25;;;10.03;100.00
42289;BME280;30230;47.520;19.016;2023-05-13T05:19:01;99556.19;;;10.07;100.00
42289;BME280;30230;47.520;19.016;2023-05-13T05:21:02;99556.19;;;10.07;100.00
42289;BME280;30230;47.520;19.016;2023-05-13T05:23:02;99556.41;;;10.06;100.00
42289;BME280;30230;47.520;19.016;2023-05-13T05:25:03;99560.59;;;10.08;100.00
42289;BME280;30230;47.520;19.016;2023-05-13T05:27:04;99560.44;;;10.16;100.00
42289;BME280;30230;47.520;19.016;2023-05-13T05:29:05;99565.22;;;10.14;100.00
42289;BME280;30230;47.520;19.016;2023-05-13T05:31:05;99551.25;;;10.11;100.00
42289;BME280;30230;47.520;19.016;2023-05-13T05:33:06;99553.75;;;10.12;100.00
42289;BME280;30230;47.520;19.016;2023-05-13T05:35:07;99554.16;;;10.09;100.00
42289;BME280;30230;47.520;19.016;2023-05-13T05:37:08;99562.09;;;10.17;100.00
42289;BME280;30230;47.520;19.016;2023-05-13T05:39:08;99554.59;;;10.13;100.00
42289;BME280;30230;47.520;19.016;2023-05-13T05:41:09;99558.00;;;10.22;100.00
42289;BME280;30230;47.520;19.016;2023-05-13T05:43:09;99555.78;;;10.25;100.00
42289;BME280;30230;47.520;19.016;2023-05-13T05:45:10;99556.13;;;10.22;100.00
42289;BME280;30230;47.520;19.016;2023-05-13T05:47:10;99558.56;;;10.17;100.00
42289;BME280;30230;47.520;19.016;2023-05-13T05:49:11;99548.22;;;10.21;100.00
42289;BME280;30230;47.520;19.016;2023-05-13T05:51:11;99552.59;;;10.22;100.00
42289;BME280;30230;47.520;19.016;2023-05-13T05:53:12;99560.19;;;10.11;100.00
42289;BME280;30230;47.520;19.016;2023-05-13T05:55:12;99548.34;;;10.12;100.00
42289;BME280;30230;47.520;19.016;2023-05-13T05:57:13;99560.84;;;10.13;100.00
42289;BME280;30230;47.520;19.016;2023-05-13T05:59:13;99557.88;;;10.08;100.00
42289;BME280;30230;47.520;19.016;2023-05-13T06:01:14;99558.06;;;10.07;100.00
42289;BME280;30230;47.520;19.016;2023-05-13T06:03:14;99564.28;;;10.07;100.00
42289;BME280;30230;47.520;19.016;2023-05-13T06:05:15;99569.13;;;10.12;100.00
42289;BME280;30230;47.520;19.016;2023-05-13T06:07:15;99569.63;;;10.22;100.00
42289;BME280;30230;47.520;19.016;2023-05-13T06:09:16;99567.50;;;10.17;100.00
42289;BME280;30230;47.520;19.016;2023-05-13T06:11:16;99574.00;;;10.23;100.00
42289;BME280;30230;47.520;19.016;2023-05-13T06:13:17;99563.88;;;10.25;100.00
42289;BME280;30230;47.520;19.016;2023-05-13T06:15:17;99576.69;;;10.23;100.00
42289;BME280;30230;47.520;19.016;2023-05-13T06:17:17;99571.91;;;10.18;100.00
42289;BME280;30230;47.520;19.016;2023-05-13T06:19:18;99570.19;;;10.17;100.00
42289;BME280;30230;47.520;19.016;2023-05-13T06:21:18;99568.34;;;10.18;100.00
42289;BME280;30230;47.520;19.016;2023-05-13T06:23:18;99578.03;;;10.12;100.00
42289;BME280;30230;47.520;19.016;2023-05-13T06:25:19;99572.38;;;10.07;100.00
42289;BME280;30230;47.520;19.016;2023-05-13T06:27:19;99577.78;;;10.07;100.00
42289;BME280;30230;47.520;19.016;2023-05-13T06:29:20;99579.97;;;9.97;100.00
42289;BME280;30230;47.520;19.016;2023-05-13T06:31:20;99574.13;;;9.94;100.00
42289;BME280;30230;47.520;19.016;2023-05-13T06:33:21;99583.59;;;10.04;100.00
42289;BME280;30230;47.520;19.016;2023-05-13T06:35:21;99590.28;;;10.08;100.00
42289;BME280;30230;47.520;19.016;2023-05-13T06:37:21;99580.31;;;10.09;100.00
42289;BME280;30230;47.520;19.016;2023-05-13T06:39:22;99587.63;;;10.15;100.00
42289;BME280;30230;47.520;19.016;2023-05-13T06:41:22;99587.22;;;10.18;100.00
42289;BME280;30230;47.520;19.016;2023-05-13T06:43:23;99578.97;;;10.20;100.00
42289;BME280;30230;47.520;19.016;2023-05-13T06:45:23;99579.56;;;10.36;100.00
42289;BME280;30230;47.520;19.016;2023-05-13T06:47:25;99584.69;;;10.31;100.00
42289;BME280;30230;47.520;19.016;2023-05-13T06:49:25;99578.66;;;10.29;100.00
42289;BME280;30230;47.520;19.016;2023-05-13T06:51:26;99580.28;;;10.24;100.00
42289;BME280;30230;47.520;19.016;2023-05-13T06:53:26;99585.81;;;10.22;100.00
42289;BME280;30230;47.520;19.016;2023-05-13T06:55:27;99587.59;;;10.30;100.00
42289;BME280;30230;47.520;19.016;2023-05-13T06:57:27;99576.25;;;10.20;100.00
42289;BME280;30230;47.520;19.016;2023-05-13T06:59:27;99568.69;;;10.30;100.00
42289;BME280;30230;47.520;19.016;2023-05-13T07:01:29;99563.34;;;10.15;100.00
42289;BME280;30230;47.520;19.016;2023-05-13T07:03:29;99569.00;;;10.20;100.00
42289;BME280;30230;47.520;19.016;2023-05-13T07:05:31;99578.75;;;10.21;100.00
42289;BME280;30230;47.520;19.016;2023-05-13T07:07:31;99585.00;;;10.22;100.00
42289;BME280;30230;47.520;19.016;2023-05-13T07:09:31;99586.94;;;10.28;100.00
42289;BME280;30230;47.520;19.016;2023-05-13T07:11:34;99585.00;;;10.22;100.00
42289;BME280;30230;47.520;19.016;2023-05-13T07:13:34;99578.25;;;10.11;100.00
42289;BME280;30230;47.520;19.016;2023-05-13T07:15:34;99584.91;;;10.30;100.00
42289;BME280;30230;47.520;19.016;2023-05-13T07:17:35;99574.88;;;11.08;100.00
42289;BME280;30230;47.520;19.016;2023-05-13T07:19:35;99572.13;;;11.01;100.00
42289;BME280;30230;47.520;19.016;2023-05-13T07:21:37;99573.88;;;10.81;100.00
42289;BME280;30230;47.520;19.016;2023-05-13T07:23:37;99580.47;;;10.72;100.00
42289;BME280;30230;47.520;19.016;2023-05-13T07:25:38;99584.53;;;10.61;100.00
42289;BME280;30230;47.520;19.016;2023-05-13T07:27:38;99586.19;;;10.62;100.00
42289;BME280;30230;47.520;19.016;2023-05-13T07:29:39;99590.34;;;10.64;100.00
42289;BME280;30230;47.520;19.016;2023-05-13T07:31:39;99577.50;;;10.66;100.00
42289;BME280;30230;47.520;19.016;2023-05-13T07:33:40;99578.72;;;10.64;100.00
42289;BME280;30230;47.520;19.016;2023-05-13T07:35:40;99591.34;;;10.57;100.00
42289;BME280;30230;47.520;19.016;2023-05-13T07:37:41;99597.47;;;10.65;100.00
42289;BME280;30230;47.520;19.016;2023-05-13T07:39:42;99594.94;;;10.64;100.00
42289;BME280;30230;47.520;19.016;2023-05-13T07:41:42;99598.03;;;10.61;100.00
42289;BME280;30230;47.520;19.016;2023-05-13T07:43:44;99597.59;;;10.57;100.00
42289;BME280;30230;47.520;19.016;2023-05-13T07:45:44;99597.59;;;10.57;100.00
42289;BME280;30230;47.520;19.016;2023-05-13T07:47:45;99588.19;;;10.53;100.00
42289;BME280;30230;47.520;19.016;2023-05-13T07:49:45;99596.38;;;10.60;100.00
42289;BME280;30230;47.520;19.016;2023-05-13T07:51:46;99601.63;;;10.68;100.00
42289;BME280;30230;47.520;19.016;2023-05-13T07:53:46;99602.38;;;10.55;100.00
42289;BME280;30230;47.520;19.016;2023-05-13T07:55:47;99597.50;;;10.44;100.00
42289;BME280;30230;47.520;19.016;2023-05-13T07:57:47;99606.47;;;10.51;100.00
42289;BME280;30230;47.520;19.016;2023-05-13T07:59:47;99610.38;;;10.49;100.00
42289;BME280;30230;47.520;19.016;2023-05-13T08:01:48;99606.44;;;10.45;100.00
42289;BME280;30230;47.520;19.016;2023-05-13T08:03:48;99615.09;;;10.40;100.00
42289;BME280;30230;47.520;19.016;2023-05-13T08:05:48;99615.91;;;10.34;100.00
42289;BME280;30230;47.520;19.016;2023-05-13T08:07:49;99621.97;;;10.42;100.00
42289;BME280;30230;47.520;19.016;2023-05-13T08:09:50;99627.38;;;10.42;100.00
42289;BME280;30230;47.520;19.016;2023-05-13T08:11:50;99607.97;;;10.32;100.00
42289;BME280;30230;47.520;19.016;2023-05-13T08:13:51;99615.16;;;10.47;100.00
42289;BME280;30230;47.520;19.016;2023-05-13T08:15:51;99619.72;;;10.46;100.00
42289;BME280;30230;47.520;19.016;2023-05-13T08:17:53;99620.44;;;10.33;100.00
42289;BME280;30230;47.520;19.016;2023-05-13T08:19:53;99625.75;;;10.48;100.00
42289;BME280;30230;47.520;19.016;2023-05-13T08:21:54;99634.91;;;10.47;100.00
42289;BME280;30230;47.520;19.016;2023-05-13T08:23:54;99632.81;;;10.49;100.00
42289;BME280;30230;47.520;19.016;2023-05-13T08:25:54;99638.31;;;10.34;100.00
42289;BME280;30230;47.520;19.016;2023-05-13T08:27:56;99629.19;;;10.35;100.00
42289;BME280;30230;47.520;19.016;2023-05-13T08:29:56;99638.31;;;10.34;100.00
42289;BME280;30230;47.520;19.016;2023-05-13T08:31:56;99626.88;;;10.32;100.00
42289;BME280;30230;47.520;19.016;2023-05-13T08:33:57;99622.03;;;10.28;100.00
42289;BME280;30230;47.520;19.016;2023-05-13T08:35:59;99641.09;;;10.41;100.00
42289;BME280;30230;47.520;19.016;2023-05-13T08:37:59;99638.25;;;10.28;100.00
42289;BME280;30230;47.520;19.016;2023-05-13T08:40:00;99643.91;;;10.33;100.00
42289;BME280;30230;47.520;19.016;2023-05-13T08:42:02;99642.44;;;10.30;100.00
42289;BME280;30230;47.520;19.016;2023-05-13T08:44:03;99649.03;;;10.28;100.00
42289;BME280;30230;47.520;19.016;2023-05-13T08:46:08;99652.25;;;10.38;100.00
42289;BME280;30230;47.520;19.016;2023-05-13T08:48:09;99657.47;;;10.39;100.00
42289;BME280;30230;47.520;19.016;2023-05-13T08:50:11;99648.56;;;10.39;100.00
42289;BME280;30230;47.520;19.016;2023-05-13T08:52:12;99632.75;;;10.21;100.00
42289;BME280;30230;47.520;19.016;2023-05-13T08:54:13;99637.03;;;10.30;100.00
42289;BME280;30230;47.520;19.016;2023-05-13T08:56:15;99650.66;;;10.43;100.00
42289;BME280;30230;47.520;19.016;2023-05-13T08:58:15;99643.16;;;10.39;100.00
42289;BME280;30230;47.520;19.016;2023-05-13T09:00:16;99648.59;;;10.46;100.00
42289;BME280;30230;47.520;19.016;2023-05-13T09:02:16;99640.63;;;10.37;100.00
42289;BME280;30230;47.520;19.016;2023-05-13T09:04:17;99649.81;;;10.43;100.00
42289;BME280;30230;47.520;19.016;2023-05-13T09:06:18;99646.41;;;10.56;100.00
42289;BME280;30230;47.520;19.016;2023-05-13T09:08:19;99642.16;;;10.47;100.00
42289;BME280;30230;47.520;19.016;2023-05-13T09:10:20;99651.03;;;10.62;100.00
42289;BME280;30230;47.520;19.016;2023-05-13T09:14:48;99624.25;;;10.39;100.00
42289;BME280;30230;47.520;19.016;2023-05-13T09:16:49;99648.03;;;10.50;100.00
42289;BME280;30230;47.520;19.016;2023-05-13T09:18:56;99654.63;;;10.69;100.00
42289;BME280;30230;47.520;19.016;2023-05-13T09:20:56;99655.44;;;10.69;100.00
42289;BME280;30230;47.520;19.016;2023-05-13T09:23:05;99650.16;;;10.83;100.00
42289;BME280;30230;47.520;19.016;2023-05-13T09:25:09;99652.75;;;10.91;100.00
42289;BME280;30230;47.520;19.016;2023-05-13T09:27:10;99650.13;;;11.04;100.00
42289;BME280;30230;47.520;19.016;2023-05-13T09:29:22;99640.78;;;11.07;100.00
42289;BME280;30230;47.520;19.016;2023-05-13T09:31:31;99640.00;;;11.13;100.00
42289;BME280;30230;47.520;19.016;2023-05-13T09:33:32;99634.03;;;11.24;100.00
42289;BME280;30230;47.520;19.016;2023-05-13T09:35:38;99636.09;;;11.22;100.00
42289;BME280;30230;47.520;19.016;2023-05-13T09:37:39;99638.19;;;11.27;100.00
42289;BME280;30230;47.520;19.016;2023-05-13T09:39:40;99641.78;;;11.34;100.00
42289;BME280;30230;47.520;19.016;2023-05-13T09:41:41;99638.91;;;11.42;100.00
42289;BME280;30230;47.520;19.016;2023-05-13T09:43:41;99643.13;;;11.51;100.00
42289;BME280;30230;47.520;19.016;2023-05-13T09:45:42;99645.47;;;11.61;100.00
42289;BME280;30230;47.520;19.016;2023-05-13T09:47:42;99646.97;;;11.77;100.00
42289;BME280;30230;47.520;19.016;2023-05-13T09:49:44;99639.69;;;11.77;100.00
42289;BME280;30230;47.520;19.016;2023-05-13T09:51:45;99632.59;;;11.69;100.00
42289;BME280;30230;47.520;19.016;2023-05-13T09:53:46;99638.31;;;11.88;100.00
42289;BME280;30230;47.520;19.016;2023-05-13T09:55:48;99644.59;;;11.95;100.00
42289;BME280;30230;47.520;19.016;2023-05-13T09:57:48;99641.00;;;11.88;100.00
42289;BME280;30230;47.520;19.016;2023-05-13T09:59:49;99634.38;;;11.90;100.00
42289;BME280;30230;47.520;19.016;2023-05-13T10:01:49;99624.28;;;11.78;100.00
42289;BME280;30230;47.520;19.016;2023-05-13T10:03:50;99634.38;;;11.90;100.00
42289;BME280;30230;47.520;19.016;2023-05-13T10:05:50;99630.41;;;11.93;100.00
42289;BME280;30230;47.520;19.016;2023-05-13T10:07:52;99631.00;;;11.82;100.00
42289;BME280;30230;47.520;19.016;2023-05-13T10:09:57;99634.72;;;11.81;100.00
42289;BME280;30230;47.520;19.016;2023-05-13T10:11:58;99619.47;;;11.66;100.00
42289;BME280;30230;47.520;19.016;2023-05-13T10:14:00;99631.41;;;11.79;100.00
42289;BME280;30230;47.520;19.016;2023-05-13T10:16:02;99621.22;;;11.87;100.00
42289;BME280;30230;47.520;19.016;2023-05-13T10:18:03;99616.88;;;11.93;100.00
42289;BME280;30230;47.520;19.016;2023-05-13T10:20:04;99628.16;;;12.03;100.00
42289;BME280;30230;47.520;19.016;2023-05-13T10:22:05;99621.47;;;11.99;100.00
42289;BME280;30230;47.520;19.016;2023-05-13T10:24:06;99616.88;;;11.93;100.00
42289;BME280;30230;47.520;19.016;2023-05-13T10:26:08;99620.25;;;12.02;100.00
42289;BME280;30230;47.520;19.016;2023-05-13T10:28:09;99627.06;;;11.84;100.00
42289;BME280;30230;47.520;19.016;2023-05-13T10:30:10;99631.44;;;11.92;100.00
42289;BME280;30230;47.520;19.016;2023-05-13T10:32:11;99633.72;;;11.82;100.00
42289;BME280;30230;47.520;19.016;2023-05-13T10:34:12;99635.38;;;11.83;100.00